Time;durP1;ratioP1;P1;durP2;ratioP2;P2;SDS_P1;SDS_P2;PMS_P1;PMS_P2;Temp;Humidity;BMP_temperature;BMP_pressure;BME280_temperature;BME280_humidity;BME280_pressure;Samples;Min_cycle;Max_cycle;Signal;HPM_P1;HPM_P2
2022/01/17 00:02:04;;;;;;;10.77;6.55;;;;;;;;;;5024652;28;20033;-52
2022/01/17 00:04:29;;;;;;;11.00;5.82;;;;;;;;;;5025241;28;20029;-53
2022/01/17 00:06:54;;;;;;;9.65;6.05;;;;;;;;;;5031290;28;21173;-52
2022/01/17 00:09:22;;;;;;;9.50;6.03;;;;;;;;;;5027706;28;20083;-54
2022/01/17 00:11:49;;;;;;;11.00;6.22;;;;;;;;;;5028773;28;20043;-57
2022/01/17 00:14:17;;;;;;;10.27;6.18;;;;;;;;;;5029747;28;20021;-50
2022/01/17 00:16:52;;;;;;;9.77;6.28;;;;;;;;;;5028760;28;20122;-53
2022/01/17 00:21:50;;;;;;;10.38;5.75;;;;;;;;;;5030338;28;20040;-56
2022/01/17 00:24:18;;;;;;;11.23;6.15;;;;;;;;;;5028283;28;20025;-54
2022/01/17 00:26:46;;;;;;;16.13;6.57;;;;;;;;;;5027453;28;20037;-52
2022/01/17 00:29:11;;;;;;;11.70;6.50;;;;;;;;;;5015605;28;20052;-51
2022/01/17 00:31:37;;;;;;;10.85;6.63;;;;;;;;;;5028323;28;20033;-52
2022/01/17 00:34:02;;;;;;;12.70;7.22;;;;;;;;;;5003587;28;20013;-52
2022/01/17 00:36:27;;;;;;;11.40;6.80;;;;;;;;;;5022140;28;20080;-51
2022/01/17 00:38:53;;;;;;;10.45;6.35;;;;;;;;;;5022548;28;20470;-51
2022/01/17 00:41:18;;;;;;;13.25;7.15;;;;;;;;;;5021520;28;20029;-51
2022/01/17 00:43:43;;;;;;;14.00;6.75;;;;;;;;;;5023615;28;20041;-50
2022/01/17 00:46:09;;;;;;;11.00;6.32;;;;;;;;;;5024473;28;20063;-51
2022/01/17 00:48:35;;;;;;;13.65;6.82;;;;;;;;;;5023937;28;20037;-51
2022/01/17 00:51:00;;;;;;;13.73;6.72;;;;;;;;;;5023169;28;20033;-54
2022/01/17 00:53:25;;;;;;;11.77;6.85;;;;;;;;;;5024260;28;20044;-50
2022/01/17 00:55:51;;;;;;;11.57;6.32;;;;;;;;;;5021627;28;20124;-53
2022/01/17 00:58:16;;;;;;;11.57;6.95;;;;;;;;;;5023776;28;20729;-51
2022/01/17 01:00:42;;;;;;;13.57;6.82;;;;;;;;;;5021548;28;20084;-54
2022/01/17 01:03:08;;;;;;;9.88;6.03;;;;;;;;;;5025514;28;20029;-52
2022/01/17 01:05:35;;;;;;;12.90;6.75;;;;;;;;;;5023179;28;20048;-55
2022/01/17 01:08:00;;;;;;;15.00;7.45;;;;;;;;;;5022948;28;20434;-56
2022/01/17 01:10:26;;;;;;;11.48;6.45;;;;;;;;;;5023935;28;20065;-56
2022/01/17 01:12:52;;;;;;;13.13;6.57;;;;;;;;;;5023946;28;20040;-54
2022/01/17 01:15:34;;;;;;;13.45;6.85;;;;;;;;;;5026593;28;20137;-52
2022/01/17 01:18:02;;;;;;;12.60;6.60;;;;;;;;;;5026520;28;20067;-53
2022/01/17 01:28:39;;;;;;;10.32;5.80;;;;;;;;;;5025453;28;20630;-52
2022/01/17 01:31:11;;;;;;;12.25;7.03;;;;;;;;;;5024922;28;20057;-53
2022/01/17 01:33:40;;;;;;;12.43;6.65;;;;;;;;;;5025882;28;20473;-52
2022/01/17 01:36:18;;;;;;;11.23;6.55;;;;;;;;;;5008903;28;20024;-51
2022/01/17 01:38:43;;;;;;;10.23;6.70;;;;;;;;;;5025520;28;20039;-53
2022/01/17 01:41:09;;;;;;;12.38;6.90;;;;;;;;;;5023638;28;20025;-54
2022/01/17 01:43:34;;;;;;;10.98;6.35;;;;;;;;;;5007802;28;20033;-55
2022/01/17 01:46:02;;;;;;;13.70;7.10;;;;;;;;;;5026582;28;20055;-54
2022/01/17 01:48:32;;;;;;;11.43;6.32;;;;;;;;;;5025115;28;20093;-52
2022/01/17 01:50:57;;;;;;;10.57;6.32;;;;;;;;;;5029456;28;20060;-53
2022/01/17 01:53:23;;;;;;;11.52;6.20;;;;;;;;;;5009758;28;20123;-51
2022/01/17 01:55:53;;;;;;;10.65;6.30;;;;;;;;;;5025974;28;20032;-55
2022/01/17 01:58:20;;;;;;;10.73;6.75;;;;;;;;;;5024166;28;20025;-51
2022/01/17 02:00:46;;;;;;;11.35;6.07;;;;;;;;;;5023777;28;20489;-52
2022/01/17 02:03:11;;;;;;;10.38;5.75;;;;;;;;;;5025543;28;20035;-51
2022/01/17 02:05:37;;;;;;;11.80;6.40;;;;;;;;;;5026799;28;20116;-56
2022/01/17 02:08:02;;;;;;;11.60;6.50;;;;;;;;;;5023968;28;20454;-52
2022/01/17 02:10:28;;;;;;;12.90;6.25;;;;;;;;;;5025202;28;20473;-51
2022/01/17 02:12:53;;;;;;;11.73;6.30;;;;;;;;;;5027400;28;20103;-50
2022/01/17 02:15:19;;;;;;;12.45;6.60;;;;;;;;;;5026031;28;20025;-50
2022/01/17 02:17:56;;;;;;;11.35;6.18;;;;;;;;;;5024525;28;20546;-51
2022/01/17 02:20:34;;;;;;;13.35;6.53;;;;;;;;;;5024869;28;20097;-51
2022/01/17 02:23:01;;;;;;;10.38;6.20;;;;;;;;;;5020826;28;20034;-52
2022/01/17 02:25:26;;;;;;;10.77;6.20;;;;;;;;;;5024126;28;20401;-53
2022/01/17 02:27:51;;;;;;;10.25;6.30;;;;;;;;;;5025027;28;20112;-51
2022/01/17 02:30:21;;;;;;;10.68;5.95;;;;;;;;;;5025295;28;20033;-55
2022/01/17 02:32:47;;;;;;;10.00;5.85;;;;;;;;;;5027953;28;20029;-53
2022/01/17 02:35:13;;;;;;;12.30;6.07;;;;;;;;;;5024557;28;20474;-52
2022/01/17 02:37:39;;;;;;;11.40;5.95;;;;;;;;;;4995186;28;20024;-55
2022/01/17 02:40:07;;;;;;;10.70;6.07;;;;;;;;;;5026241;28;20028;-52
2022/01/17 02:42:35;;;;;;;10.73;6.25;;;;;;;;;;5024364;28;20034;-54
2022/01/17 02:45:10;;;;;;;11.00;6.13;;;;;;;;;;5025111;28;20428;-51
2022/01/17 02:47:35;;;;;;;10.75;5.78;;;;;;;;;;5025195;28;20037;-55
2022/01/17 02:50:01;;;;;;;11.57;6.13;;;;;;;;;;5025005;28;20060;-54
2022/01/17 02:52:28;;;;;;;10.02;6.07;;;;;;;;;;5023653;28;20144;-51
2022/01/17 02:54:53;;;;;;;10.23;5.57;;;;;;;;;;5021364;28;20105;-52
2022/01/17 02:57:19;;;;;;;11.80;5.68;;;;;;;;;;5024582;28;20049;-52
2022/01/17 02:59:44;;;;;;;10.80;5.60;;;;;;;;;;5009406;28;20084;-55
2022/01/17 03:02:10;;;;;;;9.88;4.95;;;;;;;;;;5024906;28;20048;-56
2022/01/17 03:04:35;;;;;;;11.50;5.55;;;;;;;;;;5025842;28;20032;-54
2022/01/17 03:07:01;;;;;;;10.25;6.03;;;;;;;;;;5025924;28;20100;-55
2022/01/17 03:09:31;;;;;;;10.15;5.75;;;;;;;;;;5025699;28;20022;-54
2022/01/17 03:11:57;;;;;;;12.52;6.10;;;;;;;;;;5023782;28;20032;-56
2022/01/17 03:14:23;;;;;;;11.50;6.28;;;;;;;;;;5025635;28;20128;-52
2022/01/17 03:16:49;;;;;;;10.82;5.85;;;;;;;;;;5025889;28;20028;-52
2022/01/17 03:19:15;;;;;;;10.52;5.18;;;;;;;;;;5023060;28;20025;-55
2022/01/17 03:21:40;;;;;;;9.60;5.85;;;;;;;;;;5023075;28;20087;-51
2022/01/17 03:24:07;;;;;;;11.43;5.38;;;;;;;;;;5025723;28;20494;-53
2022/01/17 03:26:33;;;;;;;9.23;5.38;;;;;;;;;;5021030;28;20033;-51
2022/01/17 03:29:00;;;;;;;10.13;5.50;;;;;;;;;;5027181;28;20022;-53
2022/01/17 03:31:27;;;;;;;11.48;5.85;;;;;;;;;;5008459;28;20050;-53
2022/01/17 03:33:52;;;;;;;10.45;5.50;;;;;;;;;;5025686;28;20052;-51
2022/01/17 03:36:18;;;;;;;10.50;5.47;;;;;;;;;;5025861;28;20029;-53
2022/01/17 03:38:43;;;;;;;9.35;4.95;;;;;;;;;;5024715;28;20029;-53
2022/01/17 03:41:12;;;;;;;7.88;5.15;;;;;;;;;;5024908;28;20143;-53
2022/01/17 03:43:38;;;;;;;6.75;4.63;;;;;;;;;;5023052;28;20049;-53
2022/01/17 03:46:04;;;;;;;9.02;5.50;;;;;;;;;;5025179;28;20449;-53
2022/01/17 03:48:31;;;;;;;7.53;5.10;;;;;;;;;;5023521;28;20025;-53
2022/01/17 03:50:58;;;;;;;9.23;4.93;;;;;;;;;;5024571;28;20034;-51
2022/01/17 03:53:25;;;;;;;8.18;4.78;;;;;;;;;;5023633;28;20049;-55
2022/01/17 03:55:51;;;;;;;8.25;5.15;;;;;;;;;;5026647;28;20040;-51
2022/01/17 03:58:17;;;;;;;9.90;5.35;;;;;;;;;;5022311;28;20517;-55
2022/01/17 04:00:46;;;;;;;11.32;5.55;;;;;;;;;;5019295;28;20089;-50
2022/01/17 04:03:12;;;;;;;8.95;4.78;;;;;;;;;;5020325;28;20040;-50
2022/01/17 04:05:39;;;;;;;8.95;5.50;;;;;;;;;;5019076;28;20036;-54
2022/01/17 04:08:05;;;;;;;10.75;5.32;;;;;;;;;;5021044;28;20053;-53
2022/01/17 04:10:31;;;;;;;8.48;4.72;;;;;;;;;;5021727;28;20041;-53
2022/01/17 04:13:01;;;;;;;6.57;4.35;;;;;;;;;;5022038;28;20040;-50
2022/01/17 04:15:28;;;;;;;8.18;4.97;;;;;;;;;;5020077;28;20057;-51
2022/01/17 04:17:54;;;;;;;8.02;5.03;;;;;;;;;;5021968;28;20123;-52
2022/01/17 04:20:26;;;;;;;8.50;4.15;;;;;;;;;;5021375;28;20061;-50
2022/01/17 04:22:54;;;;;;;9.07;4.90;;;;;;;;;;5020982;28;20038;-53
2022/01/17 04:25:21;;;;;;;7.35;4.47;;;;;;;;;;5023945;28;20186;-52
2022/01/17 04:27:48;;;;;;;7.28;3.67;;;;;;;;;;5021178;28;20491;-54
2022/01/17 04:30:15;;;;;;;7.35;4.10;;;;;;;;;;5021109;28;20107;-50
2022/01/17 04:32:42;;;;;;;5.65;3.75;;;;;;;;;;5020971;28;20037;-54
2022/01/17 04:35:08;;;;;;;5.75;3.50;;;;;;;;;;5025559;28;20116;-50
2022/01/17 04:37:33;;;;;;;7.05;4.05;;;;;;;;;;5026614;28;20498;-54
2022/01/17 04:39:58;;;;;;;8.60;3.80;;;;;;;;;;5026770;28;20070;-51
2022/01/17 04:42:28;;;;;;;6.57;3.38;;;;;;;;;;5023195;28;20517;-51
2022/01/17 04:45:07;;;;;;;5.47;3.65;;;;;;;;;;5026432;28;20034;-53
2022/01/17 04:47:33;;;;;;;6.47;3.58;;;;;;;;;;5024980;28;20033;-55
2022/01/17 04:49:59;;;;;;;8.52;4.18;;;;;;;;;;5025894;28;20034;-54
2022/01/17 04:52:26;;;;;;;4.57;3.33;;;;;;;;;;5024095;28;20410;-54
2022/01/17 04:54:54;;;;;;;5.78;3.65;;;;;;;;;;5025121;28;20101;-53
2022/01/17 04:57:21;;;;;;;6.03;3.88;;;;;;;;;;5026537;28;20500;-52
2022/01/17 04:59:47;;;;;;;5.88;3.70;;;;;;;;;;5023749;28;20017;-54
2022/01/17 05:02:12;;;;;;;6.43;3.80;;;;;;;;;;5021098;28;20075;-53
2022/01/17 05:04:37;;;;;;;7.05;3.58;;;;;;;;;;5025335;28;20060;-55
2022/01/17 05:07:04;;;;;;;6.10;3.75;;;;;;;;;;5023124;28;20976;-54
2022/01/17 05:09:30;;;;;;;6.38;3.67;;;;;;;;;;5025586;28;20056;-52
2022/01/17 05:11:56;;;;;;;5.47;3.55;;;;;;;;;;5022766;28;20075;-52
2022/01/17 05:14:21;;;;;;;5.43;3.72;;;;;;;;;;5025822;28;20688;-53
2022/01/17 05:16:52;;;;;;;7.72;4.00;;;;;;;;;;5025257;28;20044;-51
2022/01/17 05:22:02;;;;;;;4.95;3.60;;;;;;;;;;5025489;28;20389;-53
2022/01/17 05:24:27;;;;;;;6.60;3.78;;;;;;;;;;5024720;28;20037;-51
2022/01/17 05:26:52;;;;;;;4.53;3.00;;;;;;;;;;5021902;28;20379;-50
2022/01/17 05:29:19;;;;;;;5.65;3.65;;;;;;;;;;5023596;28;20028;-54
2022/01/17 05:31:45;;;;;;;4.72;3.28;;;;;;;;;;5024974;28;20037;-51
2022/01/17 05:34:10;;;;;;;5.72;3.60;;;;;;;;;;5010381;28;20390;-55
2022/01/17 05:36:35;;;;;;;6.07;3.38;;;;;;;;;;5024495;28;20500;-54
2022/01/17 05:39:01;;;;;;;6.72;3.85;;;;;;;;;;5024231;28;20101;-52
2022/01/17 05:41:26;;;;;;;5.28;3.40;;;;;;;;;;5022944;28;20033;-52
2022/01/17 05:43:52;;;;;;;6.25;3.50;;;;;;;;;;5023900;28;20030;-57
2022/01/17 05:46:17;;;;;;;5.82;3.70;;;;;;;;;;5023335;28;20401;-50
2022/01/17 05:48:43;;;;;;;5.78;3.47;;;;;;;;;;5024121;28;20038;-58
2022/01/17 05:51:08;;;;;;;7.63;3.80;;;;;;;;;;5026931;28;20036;-55
2022/01/17 05:53:34;;;;;;;5.88;3.80;;;;;;;;;;5026011;28;20091;-52
2022/01/17 05:55:59;;;;;;;6.40;3.90;;;;;;;;;;5027334;28;20030;-56
2022/01/17 05:58:25;;;;;;;7.65;3.88;;;;;;;;;;5024534;28;20029;-54
2022/01/17 06:00:52;;;;;;;6.70;3.78;;;;;;;;;;5026699;28;20037;-51
2022/01/17 06:03:17;;;;;;;5.78;3.15;;;;;;;;;;5025158;28;20029;-51
2022/01/17 06:05:42;;;;;;;5.20;3.28;;;;;;;;;;5026526;28;20083;-51
2022/01/17 06:08:08;;;;;;;6.22;3.80;;;;;;;;;;5026011;28;20662;-53
2022/01/17 06:10:33;;;;;;;5.45;3.47;;;;;;;;;;5024658;28;20033;-56
2022/01/17 06:13:01;;;;;;;5.53;3.40;;;;;;;;;;5025533;28;20037;-55
2022/01/17 06:15:27;;;;;;;4.40;3.10;;;;;;;;;;5025640;28;20061;-52
2022/01/17 06:17:52;;;;;;;5.20;3.50;;;;;;;;;;5025952;28;20091;-50
2022/01/17 06:20:18;;;;;;;7.55;3.60;;;;;;;;;;5024757;28;20029;-54
2022/01/17 06:22:43;;;;;;;4.95;2.95;;;;;;;;;;5025989;28;20061;-55
2022/01/17 06:25:09;;;;;;;5.60;3.47;;;;;;;;;;5026804;28;20025;-53
2022/01/17 06:27:34;;;;;;;6.80;3.60;;;;;;;;;;5025413;28;20033;-50
2022/01/17 06:30:00;;;;;;;5.07;3.33;;;;;;;;;;5025772;28;20497;-52
2022/01/17 06:32:26;;;;;;;5.47;3.60;;;;;;;;;;5024523;28;20060;-53
2022/01/17 06:34:53;;;;;;;6.05;3.78;;;;;;;;;;5026675;28;20041;-55
2022/01/17 06:37:18;;;;;;;6.68;3.75;;;;;;;;;;5024586;28;20040;-53
2022/01/17 06:39:43;;;;;;;6.82;3.58;;;;;;;;;;5025514;28;20386;-55
2022/01/17 06:42:09;;;;;;;6.38;3.42;;;;;;;;;;5025025;28;20036;-50
2022/01/17 06:44:34;;;;;;;5.93;3.88;;;;;;;;;;5024335;28;20036;-53
2022/01/17 06:47:00;;;;;;;5.38;3.60;;;;;;;;;;5026236;28;20550;-55
2022/01/17 06:49:25;;;;;;;5.57;3.78;;;;;;;;;;5024177;28;20048;-53
2022/01/17 06:51:51;;;;;;;6.57;3.85;;;;;;;;;;5024001;28;20030;-52
2022/01/17 06:54:17;;;;;;;6.72;3.95;;;;;;;;;;5024198;28;20649;-52
2022/01/17 06:56:44;;;;;;;6.22;4.32;;;;;;;;;;5023023;28;20152;-54
2022/01/17 06:59:13;;;;;;;6.32;3.65;;;;;;;;;;5022189;28;20021;-55
2022/01/17 07:01:40;;;;;;;5.03;3.70;;;;;;;;;;5023763;28;20389;-53
2022/01/17 07:04:06;;;;;;;5.88;3.72;;;;;;;;;;5004447;28;20440;-51
2022/01/17 07:06:32;;;;;;;5.80;3.47;;;;;;;;;;5024230;28;20489;-54
2022/01/17 07:08:57;;;;;;;6.35;3.75;;;;;;;;;;5017486;28;20022;-51
2022/01/17 07:11:23;;;;;;;8.38;3.72;;;;;;;;;;5022614;28;20504;-52
2022/01/17 07:13:48;;;;;;;6.88;3.75;;;;;;;;;;5023112;28;20017;-55
2022/01/17 07:16:14;;;;;;;5.72;3.85;;;;;;;;;;5022220;28;20106;-54
2022/01/17 07:18:39;;;;;;;5.97;3.83;;;;;;;;;;5023474;28;20033;-50
2022/01/17 07:21:06;;;;;;;5.72;3.65;;;;;;;;;;5023375;28;20373;-52
2022/01/17 07:23:31;;;;;;;6.00;3.47;;;;;;;;;;5004414;28;20037;-51
2022/01/17 07:25:56;;;;;;;5.80;3.58;;;;;;;;;;5024422;28;20371;-53
2022/01/17 07:28:23;;;;;;;6.82;3.85;;;;;;;;;;5022156;28;20068;-53
2022/01/17 07:30:48;;;;;;;7.43;4.10;;;;;;;;;;5023646;28;20494;-53
2022/01/17 07:33:14;;;;;;;5.82;3.78;;;;;;;;;;5023831;28;20036;-51
2022/01/17 07:35:39;;;;;;;6.72;3.72;;;;;;;;;;5024088;28;20052;-52
2022/01/17 07:38:06;;;;;;;6.68;4.13;;;;;;;;;;5020947;28;20025;-51
2022/01/17 07:40:33;;;;;;;7.05;4.35;;;;;;;;;;5021965;28;20144;-54
2022/01/17 07:42:58;;;;;;;6.63;4.20;;;;;;;;;;5021613;28;20026;-54
2022/01/17 07:45:26;;;;;;;5.35;3.80;;;;;;;;;;5023697;28;20067;-58
2022/01/17 07:50:20;;;;;;;6.18;3.45;;;;;;;;;;5021025;28;20033;-52
2022/01/17 07:52:47;;;;;;;5.97;3.80;;;;;;;;;;5023939;28;20060;-51
2022/01/17 07:55:13;;;;;;;7.53;4.28;;;;;;;;;;5023786;28;20071;-51
2022/01/17 07:57:39;;;;;;;6.68;3.80;;;;;;;;;;5021324;28;20038;-49
2022/01/17 08:00:06;;;;;;;7.70;4.05;;;;;;;;;;5023625;28;20024;-51
2022/01/17 08:02:33;;;;;;;5.50;3.40;;;;;;;;;;5022330;28;20029;-54
2022/01/17 08:04:58;;;;;;;6.18;4.07;;;;;;;;;;5023033;28;20393;-53
2022/01/17 08:07:24;;;;;;;5.75;3.95;;;;;;;;;;5022424;28;20033;-52
2022/01/17 08:09:49;;;;;;;7.15;3.90;;;;;;;;;;5024887;28;20040;-52
2022/01/17 08:12:15;;;;;;;8.18;3.88;;;;;;;;;;5024745;28;20033;-53
2022/01/17 08:14:41;;;;;;;9.05;4.03;;;;;;;;;;5025742;28;20046;-51
2022/01/17 08:17:06;;;;;;;7.15;4.30;;;;;;;;;;5024617;28;20090;-50
2022/01/17 08:19:33;;;;;;;6.22;4.18;;;;;;;;;;5026580;28;20034;-52
2022/01/17 08:22:00;;;;;;;5.63;3.50;;;;;;;;;;5024563;28;20121;-51
2022/01/17 08:24:25;;;;;;;7.88;3.88;;;;;;;;;;5027802;28;20116;-52
2022/01/17 08:26:50;;;;;;;5.15;3.58;;;;;;;;;;5025472;28;20552;-51
2022/01/17 08:29:16;;;;;;;5.85;3.65;;;;;;;;;;5026955;28;20121;-54
2022/01/17 08:31:47;;;;;;;5.47;3.47;;;;;;;;;;5026291;28;20047;-54
2022/01/17 08:34:14;;;;;;;6.35;3.85;;;;;;;;;;5007853;28;20038;-52
2022/01/17 08:36:39;;;;;;;8.45;3.35;;;;;;;;;;5026931;28;20029;-50
2022/01/17 08:39:06;;;;;;;5.80;3.47;;;;;;;;;;5027746;28;20043;-51
2022/01/17 08:41:32;;;;;;;8.25;3.40;;;;;;;;;;5026391;28;20036;-55
2022/01/17 08:43:58;;;;;;;8.82;3.58;;;;;;;;;;5022671;28;20037;-53
2022/01/17 08:46:23;;;;;;;6.85;3.20;;;;;;;;;;5026054;28;20481;-54
2022/01/17 08:48:49;;;;;;;5.72;3.03;;;;;;;;;;5023281;28;20029;-55
2022/01/17 08:51:14;;;;;;;6.68;3.67;;;;;;;;;;5024252;28;20485;-54
2022/01/17 08:53:40;;;;;;;8.57;3.65;;;;;;;;;;5025326;28;20101;-56
2022/01/17 08:56:05;;;;;;;6.28;3.30;;;;;;;;;;5025495;28;20037;-53
2022/01/17 08:58:30;;;;;;;6.05;3.22;;;;;;;;;;5023803;28;20712;-56
2022/01/17 09:00:59;;;;;;;7.80;3.38;;;;;;;;;;5026197;28;20059;-54
2022/01/17 09:03:25;;;;;;;7.00;3.58;;;;;;;;;;5025283;28;20069;-51
2022/01/17 09:05:51;;;;;;;8.70;3.90;;;;;;;;;;5025317;28;20053;-52
2022/01/17 09:08:18;;;;;;;5.82;3.50;;;;;;;;;;5024286;28;20034;-55
2022/01/17 09:10:44;;;;;;;6.28;3.55;;;;;;;;;;5024650;28;20126;-55
2022/01/17 09:13:09;;;;;;;6.88;3.13;;;;;;;;;;5026593;28;20041;-52
2022/01/17 09:15:36;;;;;;;6.07;3.25;;;;;;;;;;5023318;28;20040;-54
2022/01/17 09:18:02;;;;;;;8.95;3.35;;;;;;;;;;5022324;28;20030;-51
2022/01/17 09:20:27;;;;;;;6.22;3.55;;;;;;;;;;5023216;28;20029;-53
2022/01/17 09:22:52;;;;;;;10.27;3.60;;;;;;;;;;5008547;28;20051;-55
2022/01/17 09:25:18;;;;;;;8.18;3.78;;;;;;;;;;5025327;28;20043;-56
2022/01/17 09:27:43;;;;;;;7.43;3.38;;;;;;;;;;5024555;28;20029;-52
2022/01/17 09:30:12;;;;;;;6.35;3.42;;;;;;;;;;5025352;28;20597;-53
2022/01/17 09:32:38;;;;;;;8.43;3.88;;;;;;;;;;5022516;28;20021;-54
2022/01/17 09:35:05;;;;;;;7.95;4.10;;;;;;;;;;5024839;28;20033;-50
2022/01/17 09:37:32;;;;;;;5.80;3.65;;;;;;;;;;5009332;28;20040;-55
2022/01/17 09:39:57;;;;;;;8.23;4.10;;;;;;;;;;5025383;28;20025;-55
2022/01/17 09:42:23;;;;;;;7.78;4.07;;;;;;;;;;5024752;28;20066;-52
2022/01/17 09:44:48;;;;;;;7.72;3.58;;;;;;;;;;5026135;28;20056;-54
2022/01/17 09:47:15;;;;;;;7.03;3.42;;;;;;;;;;5022568;28;20499;-52
2022/01/17 09:49:50;;;;;;;5.68;3.13;;;;;;;;;;5024159;28;20083;-50
2022/01/17 09:54:53;;;;;;;8.98;3.67;;;;;;;;;;5025344;28;20107;-52
2022/01/17 09:57:19;;;;;;;9.77;4.18;;;;;;;;;;5022683;28;20104;-55
2022/01/17 09:59:45;;;;;;;7.20;3.80;;;;;;;;;;5024772;28;20108;-54
2022/01/17 10:02:11;;;;;;;6.93;3.63;;;;;;;;;;5025941;28;20120;-55
2022/01/17 10:04:37;;;;;;;6.38;3.25;;;;;;;;;;5025934;28;20033;-50
2022/01/17 10:07:05;;;;;;;6.72;3.25;;;;;;;;;;5026203;28;20029;-56
2022/01/17 10:09:33;;;;;;;5.88;3.42;;;;;;;;;;5024794;28;20025;-53
2022/01/17 10:12:04;;;;;;;8.60;3.53;;;;;;;;;;5024503;28;20032;-53
2022/01/17 10:14:36;;;;;;;5.90;3.38;;;;;;;;;;5019991;28;20049;-54
2022/01/17 10:17:06;;;;;;;6.43;3.50;;;;;;;;;;5022828;28;20112;-55
2022/01/17 10:19:32;;;;;;;5.30;3.30;;;;;;;;;;5021230;28;20492;-52
2022/01/17 10:22:00;;;;;;;6.07;3.40;;;;;;;;;;5011810;28;20021;-53
2022/01/17 10:24:39;;;;;;;6.00;3.85;;;;;;;;;;5024477;28;20030;-51
2022/01/17 10:27:48;;;;;;;7.38;3.55;;;;;;;;;;5022972;28;20866;-50
2022/01/17 10:30:30;;;;;;;7.05;3.58;;;;;;;;;;5022724;28;20049;-55
2022/01/17 10:35:26;;;;;;;7.35;3.97;;;;;;;;;;5024092;28;20505;-54
2022/01/17 10:37:58;;;;;;;5.45;3.67;;;;;;;;;;5021892;28;20449;-50
2022/01/17 10:40:24;;;;;;;6.88;3.22;;;;;;;;;;5024030;28;20489;-54
2022/01/17 10:42:50;;;;;;;6.80;3.85;;;;;;;;;;5021481;28;20714;-51
2022/01/17 10:45:22;;;;;;;6.88;3.83;;;;;;;;;;5024446;28;20120;-49
2022/01/17 10:47:51;;;;;;;6.32;3.92;;;;;;;;;;5022085;28;20018;-50
2022/01/17 10:50:25;;;;;;;6.93;3.85;;;;;;;;;;5023819;28;20025;-49
2022/01/17 10:52:57;;;;;;;5.95;3.20;;;;;;;;;;5021785;28;20041;-54
2022/01/17 10:55:29;;;;;;;7.38;3.75;;;;;;;;;;5021184;28;20133;-51
2022/01/17 10:58:02;;;;;;;5.63;3.88;;;;;;;;;;5022971;28;20482;-59
2022/01/17 11:00:33;;;;;;;9.23;3.90;;;;;;;;;;5023177;28;20049;-51
2022/01/17 11:03:02;;;;;;;4.95;3.35;;;;;;;;;;5023517;28;20045;-53
2022/01/17 11:05:32;;;;;;;4.95;3.08;;;;;;;;;;5022844;28;20037;-53
2022/01/17 11:08:01;;;;;;;4.45;3.30;;;;;;;;;;5024217;28;20029;-50
2022/01/17 11:10:39;;;;;;;5.07;3.50;;;;;;;;;;5024147;28;20661;-51
2022/01/17 11:13:08;;;;;;;6.85;3.15;;;;;;;;;;5020491;28;20029;-53
2022/01/17 11:15:35;;;;;;;5.95;3.35;;;;;;;;;;5013180;28;20037;-55
2022/01/17 11:18:10;;;;;;;4.95;3.30;;;;;;;;;;5021036;28;20045;-53
2022/01/17 11:20:35;;;;;;;5.55;3.00;;;;;;;;;;5020707;28;20026;-55
2022/01/17 11:23:02;;;;;;;6.82;3.42;;;;;;;;;;5022029;28;20079;-56
2022/01/17 11:25:36;;;;;;;5.28;3.40;;;;;;;;;;5023305;28;20034;-49
2022/01/17 11:28:05;;;;;;;5.60;3.40;;;;;;;;;;5020499;28;20033;-54
2022/01/17 11:30:33;;;;;;;4.95;3.17;;;;;;;;;;5023659;28;20033;-53
2022/01/17 11:33:00;;;;;;;7.95;3.50;;;;;;;;;;5023072;28;20034;-55
2022/01/17 11:35:25;;;;;;;5.03;3.03;;;;;;;;;;5022142;28;20036;-53
2022/01/17 11:37:58;;;;;;;5.30;3.53;;;;;;;;;;5021781;28;20038;-51
2022/01/17 11:40:30;;;;;;;8.60;3.30;;;;;;;;;;5023385;28;20021;-52
2022/01/17 11:42:56;;;;;;;6.30;3.55;;;;;;;;;;5037532;28;20312;-53
2022/01/17 11:45:21;;;;;;;4.63;2.92;;;;;;;;;;5025227;28;20109;-53
2022/01/17 11:47:56;;;;;;;6.25;3.30;;;;;;;;;;5027942;28;20403;-53
2022/01/17 11:50:31;;;;;;;4.38;3.30;;;;;;;;;;5025994;28;20462;-54
2022/01/17 11:53:11;;;;;;;5.65;3.25;;;;;;;;;;5026399;28;20065;-53
2022/01/17 11:58:26;;;;;;;5.43;3.08;;;;;;;;;;5022244;28;20117;-55
2022/01/17 12:01:00;;;;;;;5.10;2.88;;;;;;;;;;5027349;28;20094;-55
2022/01/17 12:03:30;;;;;;;7.78;3.38;;;;;;;;;;5011319;28;20086;-51
2022/01/17 12:06:19;;;;;;;5.78;2.80;;;;;;;;;;5027586;28;20025;-51
2022/01/17 12:08:45;;;;;;;4.72;2.90;;;;;;;;;;5024763;28;20026;-54
2022/01/17 12:11:26;;;;;;;6.03;3.00;;;;;;;;;;5025299;28;20074;-52
2022/01/17 12:13:51;;;;;;;6.80;3.00;;;;;;;;;;5026454;28;20100;-50
2022/01/17 12:16:33;;;;;;;6.03;3.00;;;;;;;;;;5026320;28;20155;-50
2022/01/17 12:19:03;;;;;;;6.07;3.20;;;;;;;;;;5025526;28;20044;-53
2022/01/17 12:21:32;;;;;;;5.22;2.80;;;;;;;;;;5029872;28;20029;-52
2022/01/17 12:24:16;;;;;;;6.43;3.40;;;;;;;;;;5023208;28;20037;-56
2022/01/17 12:26:54;;;;;;;4.38;2.85;;;;;;;;;;5024455;28;20037;-54
2022/01/17 12:29:52;;;;;;;5.85;3.15;;;;;;;;;;5024283;28;20112;-55
2022/01/17 12:32:23;;;;;;;4.40;2.88;;;;;;;;;;5010905;28;20048;-52
2022/01/17 12:34:50;;;;;;;6.13;3.10;;;;;;;;;;5026318;28;20040;-51
2022/01/17 12:37:36;;;;;;;6.00;2.88;;;;;;;;;;5026286;28;20025;-56
2022/01/17 12:40:10;;;;;;;6.70;3.33;;;;;;;;;;5025068;28;20029;-56
2022/01/17 12:42:50;;;;;;;5.53;2.95;;;;;;;;;;5025612;28;20129;-51
2022/01/17 12:45:25;;;;;;;6.35;3.30;;;;;;;;;;5024292;28;20044;-52
2022/01/17 12:47:51;;;;;;;5.70;2.90;;;;;;;;;;5024543;28;20072;-50
2022/01/17 12:50:21;;;;;;;4.80;2.90;;;;;;;;;;5025796;28;20037;-54
2022/01/17 12:52:49;;;;;;;5.78;3.28;;;;;;;;;;5023455;28;20029;-51
2022/01/17 12:55:14;;;;;;;5.32;2.97;;;;;;;;;;5026856;28;20052;-50
2022/01/17 12:57:44;;;;;;;6.70;2.85;;;;;;;;;;5023464;28;20361;-50
2022/01/17 13:00:22;;;;;;;5.30;3.08;;;;;;;;;;5025341;28;20079;-51
2022/01/17 13:02:52;;;;;;;8.32;3.40;;;;;;;;;;5024006;28;20032;-54
2022/01/17 13:05:24;;;;;;;5.30;3.28;;;;;;;;;;5025443;28;20025;-50
2022/01/17 13:07:50;;;;;;;5.25;3.47;;;;;;;;;;5025323;28;20033;-52
2022/01/17 13:10:16;;;;;;;8.00;4.00;;;;;;;;;;5024776;28;20021;-53
2022/01/17 13:12:42;;;;;;;7.05;3.45;;;;;;;;;;5025585;28;21265;-52
2022/01/17 13:15:10;;;;;;;6.43;3.95;;;;;;;;;;5023527;28;20108;-55
2022/01/17 13:17:35;;;;;;;17.55;3.67;;;;;;;;;;5025387;28;20033;-50
2022/01/17 13:20:03;;;;;;;6.28;3.70;;;;;;;;;;5025538;28;20116;-56
2022/01/17 13:22:37;;;;;;;7.28;3.90;;;;;;;;;;5024774;28;20029;-55
2022/01/17 13:25:04;;;;;;;6.68;4.10;;;;;;;;;;5026708;28;20432;-53
2022/01/17 13:27:35;;;;;;;7.07;3.88;;;;;;;;;;5025556;28;20177;-50
2022/01/17 13:30:11;;;;;;;6.13;3.47;;;;;;;;;;5023902;28;20022;-52
2022/01/17 13:32:38;;;;;;;5.93;3.72;;;;;;;;;;5026199;28;20543;-54
2022/01/17 13:35:09;;;;;;;6.30;3.78;;;;;;;;;;5024459;28;20030;-52
2022/01/17 13:37:35;;;;;;;7.82;3.67;;;;;;;;;;5022381;28;20029;-52
2022/01/17 13:40:11;;;;;;;7.70;3.60;;;;;;;;;;5021654;28;20025;-53
2022/01/17 13:42:46;;;;;;;7.63;3.97;;;;;;;;;;5024650;28;20025;-55
2022/01/17 13:45:11;;;;;;;8.00;4.28;;;;;;;;;;5025034;28;20507;-50
2022/01/17 13:47:38;;;;;;;7.63;4.40;;;;;;;;;;5025036;28;20037;-53
2022/01/17 13:50:04;;;;;;;5.18;3.60;;;;;;;;;;5020956;28;20033;-53
2022/01/17 13:52:30;;;;;;;6.97;4.07;;;;;;;;;;5025403;28;20029;-55
2022/01/17 13:54:55;;;;;;;8.55;4.30;;;;;;;;;;5023713;28;20097;-55
2022/01/17 13:57:25;;;;;;;7.95;3.97;;;;;;;;;;5022562;28;20422;-51
2022/01/17 14:00:04;;;;;;;9.18;4.32;;;;;;;;;;5024208;28;20061;-53
2022/01/17 14:02:35;;;;;;;10.52;4.40;;;;;;;;;;5024042;28;20033;-52
2022/01/17 14:05:04;;;;;;;8.63;4.85;;;;;;;;;;5024379;28;20446;-52
2022/01/17 14:07:30;;;;;;;8.65;3.92;;;;;;;;;;5024303;28;20029;-51
2022/01/17 14:09:55;;;;;;;7.53;4.80;;;;;;;;;;5023529;28;20037;-50
2022/01/17 14:12:25;;;;;;;14.60;5.03;;;;;;;;;;5024430;28;20036;-50
2022/01/17 14:14:54;;;;;;;6.43;4.50;;;;;;;;;;5021667;28;20487;-54
2022/01/17 14:17:28;;;;;;;8.02;3.88;;;;;;;;;;5023792;28;20030;-50
2022/01/17 14:20:11;;;;;;;8.25;4.65;;;;;;;;;;5023311;28;20480;-55
2022/01/17 14:22:47;;;;;;;8.13;4.40;;;;;;;;;;5024018;28;20029;-54
2022/01/17 14:25:23;;;;;;;7.15;4.40;;;;;;;;;;5023549;28;20030;-56
2022/01/17 14:28:00;;;;;;;8.18;4.50;;;;;;;;;;5023460;28;20026;-56
2022/01/17 14:30:31;;;;;;;10.27;4.30;;;;;;;;;;5023296;28;20059;-59
2022/01/17 14:33:17;;;;;;;9.10;4.45;;;;;;;;;;5023114;28;20048;-53
2022/01/17 14:36:11;;;;;;;8.43;4.68;;;;;;;;;;5023479;28;20053;-52
2022/01/17 14:38:54;;;;;;;7.15;4.35;;;;;;;;;;5022566;28;20555;-54
2022/01/17 14:41:40;;;;;;;10.03;5.30;;;;;;;;;;5025089;28;20029;-53
2022/01/17 14:44:11;;;;;;;10.32;4.97;;;;;;;;;;5021834;28;20272;-58
2022/01/17 14:46:50;;;;;;;8.60;5.25;;;;;;;;;;5023173;28;20496;-58
2022/01/17 14:49:20;;;;;;;10.10;5.43;;;;;;;;;;5022549;28;20025;-57
2022/01/17 14:51:48;;;;;;;8.55;4.85;;;;;;;;;;5021402;28;20063;-54
2022/01/17 14:54:17;;;;;;;11.57;5.05;;;;;;;;;;5023557;28;20510;-57
2022/01/17 14:59:43;;;;;;;10.95;5.00;;;;;;;;;;5022126;28;20083;-56
2022/01/17 15:02:29;;;;;;;9.40;4.80;;;;;;;;;;5022184;28;20038;-55
2022/01/17 15:04:55;;;;;;;10.50;5.18;;;;;;;;;;5023252;28;20037;-54
2022/01/17 15:07:20;;;;;;;11.43;5.15;;;;;;;;;;5021043;28;20029;-54
2022/01/17 15:09:48;;;;;;;8.73;4.93;;;;;;;;;;5022311;28;20510;-55
2022/01/17 15:12:19;;;;;;;8.55;5.15;;;;;;;;;;5021593;28;20052;-55
2022/01/17 15:14:46;;;;;;;6.78;4.30;;;;;;;;;;5015589;28;20398;-56